الصفحة الرئيسية
METAR-TAF:

METAR-TAF

مطار :

Yap, مايكرونيزيا

دائرة عرض: 09-29N, خط طول: 138-05E, ارتفاع: 28 متر

مراقبة الطقس الحالي

تاريخ ووقت الإصدار 1ساعة و 45 دقيقة قبل الساعة 14:50UTC
ريح 5 عقدةمن اتجاهات متغيرة
درجة الحرارة 28°درجة مئوية
الرطوبة 84%
ضغط 1010 hPa
الرؤية: 19.3 كم
غيوم متفرقة على ارتفاع 1700 قدم
غيوم مفككة على ارتفاع 30000 قدم

METAR: PTYA 231450Z VRB05KT 12SM SCT017 BKN300 28/25 A2982 RMK MDT CU ALQDS SLP098 8/201 T02750246 403040249 57003

زمن: 02:35 (16:35 UTC)

توقعات

تاريخ ووقت الإصدار 5ساعات و 15 دقيقة قبل الساعة 11:20UTC
التوقعات صالحة من23 الساعة 12 UTC إلى 24 الساعة 12 UTC
ريح 7 عقدة من الشرق
الرؤية: 10 كم
غيوم متفرقة على ارتفاع 1700 قدم
غيوم مفككة على ارتفاع 30000 قدم

TAF: PTYA 231120Z 2312/2412 09007KT P6SM SCT017 BKN300

أرصاد الطقس والتوقعات من أكثر من 4000 مطار (تقارير الطقس للمطار METAR والتنبؤ بالطقس بالمطارTAF).

المحطات المتاحة هي النقط الصفراء والحمراء على الخريطة.

حرك المؤشر فوق النقطة لمعرفة اسم المحطة.

ثم انقر لمعرفة أرصاد وتوقعات الطقس.

لتغيير الخارطة: اضغط على الأزرار الخضراء مع رمز الصليب الأسود للتكبير. على الزر الأخضر مع شرطة للتصغير، أو على الأسهم الخضراء للخرائط المجاورة.


METAR-TAF: